createdAt,value
2023-04-03T00:00:51.573Z,1.24
2023-04-03T00:03:19.574Z,1.26
2023-04-03T00:05:47.076Z,1.17
2023-04-03T00:08:13.706Z,1.11
2023-04-03T00:10:40.449Z,1.21
2023-04-03T00:13:08.219Z,1.21
2023-04-03T00:15:36.592Z,1.16
2023-04-03T00:18:04.069Z,1.18
2023-04-03T00:20:31.017Z,1.19
2023-04-03T00:22:57.811Z,1.04
2023-04-03T00:25:24.777Z,1.06
2023-04-03T00:27:52.532Z,1.19
2023-04-03T00:30:21.864Z,1.11
2023-04-03T00:32:49.892Z,1.01
2023-04-03T00:35:19.300Z,1.05
2023-04-03T00:37:46.771Z,0.94
2023-04-03T00:40:15.395Z,0.95
2023-04-03T00:42:43.404Z,0.81
2023-04-03T00:45:19.206Z,0.89
2023-04-03T00:47:46.112Z,0.83
2023-04-03T00:50:12.772Z,0.71
2023-04-03T00:52:40.279Z,0.77
2023-04-03T00:55:09.749Z,0.72
2023-04-03T00:57:36.596Z,0.64
2023-04-03T01:00:10.279Z,0.69
2023-04-03T01:02:37.728Z,0.62
2023-04-03T01:05:05.563Z,0.67
2023-04-03T01:07:34.569Z,0.56
2023-04-03T01:10:04.520Z,0.55
2023-04-03T01:12:34.519Z,0.52
2023-04-03T01:15:05.933Z,0.50
2023-04-03T01:17:39.879Z,0.65
2023-04-03T01:20:15.765Z,0.62
2023-04-03T01:22:58.355Z,0.57
2023-04-03T01:25:25.493Z,0.57
2023-04-03T01:27:52.017Z,0.56
2023-04-03T01:30:22.700Z,0.54
2023-04-03T01:32:49.698Z,0.67
2023-04-03T01:35:16.438Z,0.65
2023-04-03T01:37:43.078Z,0.66
2023-04-03T01:40:10.356Z,0.63
2023-04-03T01:42:37.012Z,0.63
2023-04-03T01:45:04.286Z,0.58
2023-04-03T01:47:31.283Z,0.70
2023-04-03T01:49:57.979Z,0.68
2023-04-03T01:52:24.648Z,0.64
2023-04-03T01:54:51.696Z,0.48
2023-04-03T01:57:18.313Z,0.56
2023-04-03T01:59:45.044Z,0.54
2023-04-03T02:02:13.562Z,0.63
2023-04-03T02:04:40.299Z,0.67
2023-04-03T02:07:07.023Z,0.68
2023-04-03T02:09:33.608Z,0.70
2023-04-03T02:12:00.167Z,0.49
2023-04-03T02:14:28.452Z,0.46
2023-04-03T02:16:55.213Z,0.55
2023-04-03T02:19:21.897Z,0.55
2023-04-03T02:21:48.424Z,0.47
2023-04-03T02:24:15.108Z,0.47
2023-04-03T02:26:41.782Z,0.54
2023-04-03T02:29:08.416Z,0.52
2023-04-03T02:31:35.223Z,0.53
2023-04-03T02:34:01.970Z,0.54
2023-04-03T02:36:28.945Z,0.62
2023-04-03T02:38:56.831Z,0.49
2023-04-03T02:41:23.570Z,0.42
2023-04-03T02:43:50.200Z,0.47
2023-04-03T02:46:16.984Z,0.40
2023-04-03T02:48:43.703Z,0.27
2023-04-03T02:51:10.586Z,0.49
2023-04-03T02:53:37.501Z,0.45
2023-04-03T02:56:04.319Z,0.37
2023-04-03T02:58:31.424Z,0.41
2023-04-03T03:00:58.017Z,0.33
2023-04-03T03:03:24.617Z,0.39
2023-04-03T03:05:51.172Z,0.45
2023-04-03T03:08:21.228Z,0.32
2023-04-03T03:10:47.884Z,0.40
2023-04-03T03:13:14.443Z,0.44
2023-04-03T03:15:41.285Z,0.44
2023-04-03T03:18:08.005Z,0.44
2023-04-03T03:20:34.986Z,0.41
2023-04-03T03:23:01.907Z,0.30
2023-04-03T03:25:28.600Z,0.39
2023-04-03T03:27:55.397Z,0.50
2023-04-03T03:30:22.153Z,0.16
2023-04-03T03:32:48.913Z,0.27
2023-04-03T03:35:15.975Z,0.25
2023-04-03T03:37:42.627Z,0.29
2023-04-03T03:40:09.907Z,0.19
2023-04-03T03:42:36.493Z,0.13
2023-04-03T03:45:03.370Z,0.13
2023-04-03T03:47:29.978Z,0.25
2023-04-03T03:49:56.736Z,0.23
2023-04-03T03:52:23.461Z,0.23
2023-04-03T03:54:50.079Z,0.08
2023-04-03T03:57:16.777Z,0.11
2023-04-03T03:59:45.075Z,0.13
2023-04-03T04:02:12.568Z,0.24
2023-04-03T04:04:39.274Z,0.19
2023-04-03T04:07:06.090Z,0.24
2023-04-03T04:09:32.754Z,0.21
2023-04-03T04:11:59.410Z,0.23
2023-04-03T04:14:26.166Z,0.11
2023-04-03T04:16:52.803Z,0.14
2023-04-03T04:19:19.409Z,0.14
2023-04-03T04:21:46.592Z,0.13
2023-04-03T04:24:13.215Z,0.10
2023-04-03T04:26:39.887Z,0.15
2023-04-03T04:29:06.533Z,0.11
2023-04-03T04:31:33.251Z,0.16
2023-04-03T04:34:00.053Z,0.01
2023-04-03T04:36:26.885Z,0.00
2023-04-03T04:38:56.700Z,0.03
2023-04-03T04:41:25.940Z,0.00
2023-04-03T04:43:53.557Z,-0.10
2023-04-03T04:46:20.495Z,-0.11
2023-04-03T04:48:47.313Z,-0.16
2023-04-03T04:51:13.854Z,-0.24
2023-04-03T04:53:40.695Z,-0.26
2023-04-03T04:56:07.909Z,-0.20
2023-04-03T04:58:34.954Z,-0.14
2023-04-03T05:01:07.221Z,-0.11
2023-04-03T05:03:34.148Z,-0.25
2023-04-03T05:06:01.062Z,-0.11
2023-04-03T05:08:28.389Z,-0.01
2023-04-03T05:10:56.255Z,-0.13
2023-04-03T05:13:23.630Z,-0.08
2023-04-03T05:15:50.504Z,-0.07
2023-04-03T05:18:17.239Z,-0.17
2023-04-03T05:20:44.514Z,-0.18
2023-04-03T05:23:12.425Z,-0.30
2023-04-03T05:25:39.970Z,-0.10
2023-04-03T05:28:07.849Z,-0.08
2023-04-03T05:30:34.572Z,-0.23
2023-04-03T05:33:01.328Z,-0.27
2023-04-03T05:35:28.074Z,-0.40
2023-04-03T05:37:54.985Z,-0.33
2023-04-03T05:40:21.987Z,-0.41
2023-04-03T05:42:48.655Z,-0.19
2023-04-03T05:45:15.275Z,-0.23
2023-04-03T05:47:42.016Z,-0.15
2023-04-03T05:50:09.203Z,-0.08
2023-04-03T05:52:43.864Z,0.06
2023-04-03T05:55:10.760Z,0.10
2023-04-03T05:57:37.498Z,0.18
2023-04-03T06:00:08.708Z,0.13
2023-04-03T06:02:35.353Z,-0.03
2023-04-03T06:05:02.200Z,0.10
2023-04-03T06:07:29.574Z,0.03
2023-04-03T06:09:57.905Z,-0.05
2023-04-03T06:12:25.286Z,0.11
2023-04-03T06:14:52.283Z,0.10
2023-04-03T06:17:19.701Z,0.19
2023-04-03T06:19:46.968Z,0.14
2023-04-03T06:22:14.053Z,0.12
2023-04-03T06:24:41.426Z,0.20
2023-04-03T06:27:08.430Z,0.04
2023-04-03T06:29:35.031Z,0.12
2023-04-03T06:32:01.765Z,0.20
2023-04-03T06:34:28.666Z,0.41
2023-04-03T06:36:55.254Z,0.19
2023-04-03T06:39:23.860Z,0.30
2023-04-03T06:41:51.842Z,0.45
2023-04-03T06:44:18.589Z,0.56
2023-04-03T06:46:47.629Z,0.82
2023-04-03T06:49:15.259Z,0.87
2023-04-03T06:51:41.906Z,1.02
2023-04-03T06:54:09.526Z,1.04
2023-04-03T06:56:36.326Z,1.09
2023-04-03T06:59:03.409Z,1.24
2023-04-03T07:01:31.102Z,1.61
2023-04-03T07:03:58.593Z,1.26
2023-04-03T07:06:28.245Z,1.22
2023-04-03T07:08:55.681Z,1.40
2023-04-03T07:11:22.514Z,1.58
2023-04-03T07:13:49.586Z,2.21
2023-04-03T07:16:16.716Z,2.43
2023-04-03T07:18:43.296Z,2.56
2023-04-03T07:21:10.006Z,2.56
2023-04-03T07:23:36.829Z,2.57
2023-04-03T07:26:03.981Z,2.61
2023-04-03T07:28:30.928Z,2.46
2023-04-03T07:31:04.742Z,1.83
2023-04-03T07:33:32.364Z,1.50
2023-04-03T07:35:59.594Z,1.42
2023-04-03T07:38:27.082Z,1.40
2023-04-03T07:40:53.926Z,1.27
2023-04-03T07:43:21.937Z,1.23
2023-04-03T07:45:51.988Z,1.22
2023-04-03T07:48:20.364Z,1.09
2023-04-03T07:50:47.401Z,1.05
2023-04-03T07:53:15.293Z,0.98
2023-04-03T07:55:45.023Z,1.29
2023-04-03T07:58:13.125Z,0.97
2023-04-03T08:00:40.472Z,0.94
2023-04-03T08:03:09.594Z,0.94
2023-04-03T08:05:42.411Z,0.96
2023-04-03T08:08:11.852Z,0.97
2023-04-03T08:10:39.030Z,0.86
2023-04-03T08:13:06.773Z,0.80
2023-04-03T08:15:33.723Z,0.84
2023-04-03T08:18:02.336Z,0.98
2023-04-03T08:20:29.434Z,1.07
2023-04-03T08:22:56.356Z,1.69
2023-04-03T08:25:23.056Z,2.37
2023-04-03T08:27:49.744Z,2.90
2023-04-03T08:30:16.616Z,2.83
2023-04-03T08:32:44.251Z,2.36
2023-04-03T08:35:11.797Z,2.06
2023-04-03T08:37:40.453Z,2.23
2023-04-03T08:40:12.467Z,2.72
2023-04-03T08:43:00.837Z,2.33
2023-04-03T08:45:42.951Z,2.37
2023-04-03T08:48:24.933Z,2.77
2023-04-03T08:50:56.194Z,2.77
2023-04-03T08:53:28.356Z,3.78
2023-04-03T08:55:56.614Z,4.69
2023-04-03T08:58:26.951Z,5.00
2023-04-03T09:01:00.120Z,4.96
2023-04-03T09:03:30.269Z,5.12
2023-04-03T09:06:16.237Z,5.57
2023-04-03T09:09:08.047Z,6.30
2023-04-03T09:11:43.665Z,6.97
2023-04-03T09:14:32.899Z,6.52
2023-04-03T09:17:04.468Z,5.56
2023-04-03T09:19:34.008Z,5.76
2023-04-03T09:22:17.598Z,5.00
2023-04-03T09:24:48.333Z,4.70
2023-04-03T09:27:14.848Z,4.46
2023-04-03T09:29:44.557Z,4.48
2023-04-03T09:32:33.934Z,4.78
2023-04-03T09:35:18.979Z,4.72
2023-04-03T09:37:50.208Z,5.89
2023-04-03T09:40:26.048Z,6.47
2023-04-03T09:43:00.796Z,6.65
2023-04-03T09:45:37.380Z,6.97
2023-04-03T09:48:17.226Z,7.27
2023-04-03T09:51:00.622Z,7.44
2023-04-03T09:53:37.750Z,7.23
2023-04-03T09:56:30.543Z,6.34
2023-04-03T09:59:00.127Z,5.42
2023-04-03T10:01:31.702Z,4.70
2023-04-03T10:04:10.619Z,4.30
2023-04-03T10:06:47.661Z,3.88
2023-04-03T10:09:34.377Z,3.71
2023-04-03T10:12:15.771Z,3.67
2023-04-03T10:14:57.873Z,3.79
2023-04-03T10:17:47.846Z,3.76
2023-04-03T10:20:35.150Z,3.84
2023-04-03T10:23:02.585Z,3.93
2023-04-03T10:25:48.884Z,3.86
2023-04-03T10:28:26.432Z,4.54
2023-04-03T10:31:18.521Z,4.01
2023-04-03T10:33:58.451Z,4.24
2023-04-03T10:36:38.330Z,4.61
2023-04-03T10:39:13.541Z,4.63
2023-04-03T10:42:09.003Z,4.76
2023-04-03T10:45:07.111Z,5.96
2023-04-03T10:48:07.417Z,7.38
2023-04-03T10:50:56.885Z,7.44
2023-04-03T10:53:40.800Z,8.04
2023-04-03T10:56:29.675Z,7.80
2023-04-03T10:59:03.202Z,6.57
2023-04-03T11:01:36.608Z,6.13
2023-04-03T11:04:07.236Z,5.71
2023-04-03T11:06:39.294Z,4.87
2023-04-03T11:09:32.369Z,5.07
2023-04-03T11:12:05.973Z,4.93
2023-04-03T11:14:36.964Z,4.66
2023-04-03T11:17:56.629Z,5.00
2023-04-03T11:20:29.659Z,4.88
2023-04-03T11:23:06.764Z,5.10
2023-04-03T11:25:38.429Z,4.71
2023-04-03T11:28:08.074Z,5.07
2023-04-03T11:30:34.951Z,4.58
2023-04-03T11:33:26.112Z,4.68
2023-04-03T11:35:57.904Z,5.24
2023-04-03T11:38:37.670Z,6.37
2023-04-03T11:41:06.979Z,7.29
2023-04-03T11:43:35.090Z,7.30
2023-04-03T11:46:08.740Z,6.08
2023-04-03T11:48:35.311Z,5.68
2023-04-03T11:51:13.963Z,5.47
2023-04-03T11:53:42.165Z,4.75
2023-04-03T11:56:27.023Z,5.02
2023-04-03T11:59:05.995Z,4.53
2023-04-03T12:01:54.067Z,4.94
2023-04-03T12:04:23.181Z,5.06
2023-04-03T12:06:50.060Z,5.37
2023-04-03T12:09:35.335Z,6.49
2023-04-03T12:12:23.522Z,7.25
2023-04-03T12:14:52.257Z,7.95
2023-04-03T12:17:25.833Z,7.87
2023-04-03T12:19:52.980Z,7.68
2023-04-03T12:22:22.019Z,7.63
2023-04-03T12:24:53.615Z,7.73
2023-04-03T12:27:30.024Z,6.55
2023-04-03T12:30:02.888Z,5.94
2023-04-03T12:32:41.901Z,5.90
2023-04-03T12:35:46.140Z,5.61
2023-04-03T12:38:21.711Z,5.40
2023-04-03T12:41:12.881Z,6.51
2023-04-03T12:44:30.953Z,6.96
2023-04-03T12:47:03.158Z,7.06
2023-04-03T12:49:29.739Z,7.38
2023-04-03T12:51:57.033Z,7.12
2023-04-03T12:54:33.764Z,6.68
2023-04-03T12:57:25.690Z,5.79
2023-04-03T12:59:52.839Z,5.74
2023-04-03T13:02:28.781Z,6.11
2023-04-03T13:04:59.048Z,7.15
2023-04-03T13:07:34.473Z,7.15
2023-04-03T13:10:08.115Z,7.05
2023-04-03T13:12:49.587Z,6.79
2023-04-03T13:15:47.456Z,6.76
2023-04-03T13:18:34.819Z,6.53
2023-04-03T13:21:09.022Z,6.66
2023-04-03T13:23:39.403Z,7.26
2023-04-03T13:26:08.162Z,7.86
2023-04-03T13:28:36.471Z,7.44
2023-04-03T13:31:08.306Z,7.02
2023-04-03T13:33:40.049Z,6.37
2023-04-03T13:36:12.233Z,5.92
2023-04-03T13:38:39.170Z,5.73
2023-04-03T13:41:25.102Z,5.39
2023-04-03T13:43:53.767Z,5.26
2023-04-03T13:46:28.280Z,5.50
2023-04-03T13:48:57.673Z,6.32
2023-04-03T13:51:30.472Z,6.00
2023-04-03T13:54:00.934Z,5.74
2023-04-03T13:56:39.295Z,5.68
2023-04-03T13:59:25.760Z,5.32
2023-04-03T14:02:12.150Z,5.23
2023-04-03T14:04:44.967Z,5.02
2023-04-03T14:07:13.709Z,5.29
2023-04-03T14:09:40.871Z,5.65
2023-04-03T14:12:24.285Z,5.86
2023-04-03T14:14:57.628Z,5.71
2023-04-03T14:17:27.765Z,5.43
2023-04-03T14:19:56.427Z,5.43
2023-04-03T14:22:24.819Z,5.29
2023-04-03T14:24:53.086Z,5.29
2023-04-03T14:27:29.564Z,5.33
2023-04-03T14:29:58.841Z,5.29
2023-04-03T14:32:26.385Z,5.21
2023-04-03T14:34:54.315Z,5.28
2023-04-03T14:37:24.660Z,5.43
2023-04-03T14:39:54.524Z,5.40
2023-04-03T14:42:28.372Z,5.34
2023-04-03T14:44:55.068Z,5.23
2023-04-03T14:47:31.226Z,5.59
2023-04-03T14:50:01.250Z,5.41
2023-04-03T14:52:34.773Z,5.58
2023-04-03T14:55:03.004Z,5.57
2023-04-03T14:57:31.739Z,5.11
2023-04-03T14:59:59.076Z,4.94
2023-04-03T15:02:37.188Z,4.94
2023-04-03T15:05:07.665Z,4.78
2023-04-03T15:07:43.052Z,4.83
2023-04-03T15:10:30.667Z,4.76
2023-04-03T15:12:58.372Z,4.71
2023-04-03T15:15:29.044Z,4.73
2023-04-03T15:17:59.053Z,4.68
2023-04-03T15:20:27.580Z,4.76
2023-04-03T15:22:57.210Z,4.75
2023-04-03T15:25:24.612Z,4.98
2023-04-03T15:27:51.148Z,5.16
2023-04-03T15:30:20.318Z,4.83
2023-04-03T15:32:47.622Z,4.93
2023-04-03T15:35:14.427Z,4.90
2023-04-03T15:37:41.375Z,4.84
2023-04-03T15:40:08.793Z,4.76
2023-04-03T15:42:35.488Z,4.79
2023-04-03T15:45:02.222Z,4.64
2023-04-03T15:47:29.386Z,4.61
2023-04-03T15:49:56.864Z,4.60
2023-04-03T15:52:23.554Z,4.53
2023-04-03T15:54:50.537Z,4.68
2023-04-03T15:57:17.281Z,4.54
2023-04-03T15:59:44.016Z,4.58
2023-04-03T16:02:13.983Z,4.43
2023-04-03T16:04:41.571Z,4.46
2023-04-03T16:07:08.281Z,4.40
2023-04-03T16:09:36.111Z,4.30
2023-04-03T16:12:03.392Z,4.09
2023-04-03T16:14:31.506Z,4.06
2023-04-03T16:17:00.130Z,3.93
2023-04-03T16:19:27.143Z,4.03
2023-04-03T16:21:55.524Z,4.13
2023-04-03T16:24:22.299Z,4.13
2023-04-03T16:26:49.187Z,4.12
2023-04-03T16:29:15.962Z,4.25
2023-04-03T16:31:42.625Z,4.02
2023-04-03T16:34:09.341Z,3.96
2023-04-03T16:36:36.231Z,4.06
2023-04-03T16:39:03.097Z,4.10
2023-04-03T16:41:29.764Z,3.86
2023-04-03T16:43:56.782Z,3.85
2023-04-03T16:46:23.604Z,3.84
2023-04-03T16:48:50.414Z,3.87
2023-04-03T16:51:17.102Z,3.96
2023-04-03T16:53:44.262Z,3.87
2023-04-03T16:56:11.073Z,3.78
2023-04-03T16:58:37.720Z,3.61
2023-04-03T17:01:19.642Z,3.69
2023-04-03T17:03:46.781Z,3.53
2023-04-03T17:06:18.161Z,3.67
2023-04-03T17:08:49.949Z,3.55
2023-04-03T17:11:17.067Z,3.54
2023-04-03T17:13:43.870Z,3.51
2023-04-03T17:16:14.403Z,3.44
2023-04-03T17:18:41.688Z,3.54
2023-04-03T17:21:09.061Z,3.56
2023-04-03T17:23:38.821Z,3.30
2023-04-03T17:26:05.787Z,3.30
2023-04-03T17:28:32.619Z,3.26
2023-04-03T17:31:01.537Z,3.19
2023-04-03T17:33:31.303Z,3.33
2023-04-03T17:36:01.646Z,3.28
2023-04-03T17:38:29.678Z,3.21
2023-04-03T17:41:01.357Z,3.23
2023-04-03T17:43:28.023Z,3.19
2023-04-03T17:46:03.639Z,3.19
2023-04-03T17:48:32.096Z,3.19
2023-04-03T17:50:58.805Z,3.18
2023-04-03T17:53:27.732Z,3.22
2023-04-03T17:55:54.445Z,3.10
2023-04-03T17:58:21.047Z,3.07
2023-04-03T18:00:47.929Z,3.06
2023-04-03T18:03:14.713Z,3.04
2023-04-03T18:05:41.568Z,3.13
2023-04-03T18:08:08.440Z,3.21
2023-04-03T18:10:37.321Z,3.20
2023-04-03T18:13:07.482Z,3.18
2023-04-03T18:15:34.343Z,3.19
2023-04-03T18:18:01.258Z,3.15
2023-04-03T18:20:27.880Z,3.07
2023-04-03T18:22:54.699Z,3.04
2023-04-03T18:25:21.408Z,3.15
2023-04-03T18:27:48.739Z,3.14
2023-04-03T18:30:18.043Z,3.02
2023-04-03T18:32:45.056Z,3.02
2023-04-03T18:35:11.901Z,3.05
2023-04-03T18:37:38.556Z,2.92
2023-04-03T18:40:06.269Z,2.95
2023-04-03T18:42:32.969Z,3.02
2023-04-03T18:45:02.994Z,2.97
2023-04-03T18:47:29.974Z,3.05
2023-04-03T18:49:56.804Z,2.92
2023-04-03T18:52:25.404Z,2.91
2023-04-03T18:54:52.124Z,2.93
2023-04-03T18:57:18.694Z,2.94
2023-04-03T18:59:45.338Z,2.92
2023-04-03T19:02:13.870Z,2.81
2023-04-03T19:04:40.974Z,2.82
2023-04-03T19:07:09.018Z,2.81
2023-04-03T19:09:36.078Z,2.70
2023-04-03T19:12:02.777Z,2.74
2023-04-03T19:14:29.478Z,2.78
2023-04-03T19:16:56.378Z,2.81
2023-04-03T19:19:23.013Z,2.84
2023-04-03T19:21:50.543Z,2.85
2023-04-03T19:24:17.217Z,2.76
2023-04-03T19:26:43.775Z,2.75
2023-04-03T19:29:10.826Z,2.80
2023-04-03T19:31:38.143Z,2.78
2023-04-03T19:34:05.912Z,2.80
2023-04-03T19:36:33.300Z,2.69
2023-04-03T19:38:59.928Z,2.74
2023-04-03T19:41:30.079Z,2.77
2023-04-03T19:43:57.622Z,2.77
2023-04-03T19:46:29.171Z,2.74
2023-04-03T19:48:56.567Z,2.79
2023-04-03T19:51:23.415Z,2.78
2023-04-03T19:53:50.159Z,2.70
2023-04-03T19:56:17.202Z,2.78
2023-04-03T19:58:44.497Z,2.67
2023-04-03T20:01:11.604Z,2.52
2023-04-03T20:03:38.338Z,2.57
2023-04-03T20:06:05.195Z,2.55
2023-04-03T20:08:32.398Z,2.50
2023-04-03T20:10:59.007Z,2.51
2023-04-03T20:13:25.625Z,2.52
2023-04-03T20:15:53.490Z,2.51
2023-04-03T20:18:21.192Z,2.49
2023-04-03T20:20:55.325Z,2.52
2023-04-03T20:23:22.521Z,2.60
2023-04-03T20:26:01.446Z,2.59
2023-04-03T20:28:36.450Z,2.47
2023-04-03T20:31:03.982Z,2.66
2023-04-03T20:33:30.673Z,2.57
2023-04-03T20:35:58.487Z,2.58
2023-04-03T20:38:25.578Z,2.59
2023-04-03T20:40:52.647Z,2.55
2023-04-03T20:43:19.694Z,2.58
2023-04-03T20:45:47.566Z,2.57
2023-04-03T20:48:15.331Z,2.57
2023-04-03T20:50:42.571Z,2.53
2023-04-03T20:53:09.629Z,2.42
2023-04-03T20:55:36.563Z,2.46
2023-04-03T20:58:03.820Z,2.51
2023-04-03T21:00:32.420Z,2.48
2023-04-03T21:03:01.538Z,2.48
2023-04-03T21:05:30.388Z,2.53
2023-04-03T21:08:36.146Z,2.47
2023-04-03T21:11:40.473Z,2.40
2023-04-03T21:14:46.111Z,2.43
2023-04-03T21:17:12.763Z,2.27
2023-04-03T21:19:46.220Z,2.22
2023-04-03T21:22:14.034Z,2.28
2023-04-03T21:24:41.126Z,2.32
2023-04-03T21:27:08.434Z,2.34
2023-04-03T21:29:35.222Z,2.35
2023-04-03T21:32:02.290Z,2.34
2023-04-03T21:34:30.915Z,2.29
2023-04-03T21:37:02.609Z,2.36
2023-04-03T21:39:29.269Z,2.37
2023-04-03T21:41:56.129Z,2.26
2023-04-03T21:44:23.248Z,2.29
2023-04-03T21:46:54.762Z,2.29
2023-04-03T21:49:22.675Z,2.23
2023-04-03T21:51:51.820Z,2.27
2023-04-03T21:54:19.397Z,2.18
2023-04-03T21:56:48.195Z,2.20
2023-04-03T21:59:15.448Z,2.13
2023-04-03T22:01:42.180Z,2.02
2023-04-03T22:04:08.893Z,2.08
2023-04-03T22:06:37.488Z,1.98
2023-04-03T22:09:04.244Z,2.08
2023-04-03T22:11:31.326Z,1.91
2023-04-03T22:13:58.359Z,1.98
2023-04-03T22:16:25.084Z,2.08
2023-04-03T22:18:53.029Z,2.03
2023-04-03T22:21:20.663Z,2.07
2023-04-03T22:23:47.275Z,2.03
2023-04-03T22:26:13.938Z,1.98
2023-04-03T22:28:46.380Z,1.93
2023-04-03T22:31:14.529Z,1.95
2023-04-03T22:33:42.561Z,2.00
2023-04-03T22:36:11.001Z,1.95
2023-04-03T22:38:39.100Z,2.01
2023-04-03T22:41:08.102Z,1.92
2023-04-03T22:43:36.632Z,1.87
2023-04-03T22:46:05.365Z,1.99
2023-04-03T22:48:32.097Z,1.94
2023-04-03T22:51:00.189Z,1.95
2023-04-03T22:53:27.879Z,1.88
2023-04-03T22:55:58.757Z,1.86
2023-04-03T22:58:26.936Z,1.93
2023-04-03T23:01:07.697Z,1.87
2023-04-03T23:03:38.648Z,1.87
2023-04-03T23:06:06.275Z,1.96
2023-04-03T23:08:34.765Z,1.90
2023-04-03T23:11:01.843Z,1.75
2023-04-03T23:13:28.699Z,1.93
2023-04-03T23:16:00.252Z,1.89
2023-04-03T23:18:31.657Z,1.85
2023-04-03T23:21:04.381Z,1.82
2023-04-03T23:23:32.324Z,1.85
2023-04-03T23:26:00.906Z,1.86
2023-04-03T23:28:29.090Z,1.83
2023-04-03T23:31:04.214Z,1.83
2023-04-03T23:33:32.270Z,1.86
2023-04-03T23:36:00.207Z,1.88
2023-04-03T23:38:27.062Z,1.93
2023-04-03T23:40:53.804Z,1.89
2023-04-03T23:43:20.792Z,1.81
2023-04-03T23:45:47.443Z,1.75
2023-04-03T23:48:14.413Z,1.79
2023-04-03T23:50:42.338Z,1.81
2023-04-03T23:53:09.057Z,1.80
2023-04-03T23:55:35.931Z,1.80
2023-04-03T23:58:02.924Z,1.72
